createdAt,value
2023-04-09T00:01:22.457Z,22.73
2023-04-09T00:03:50.141Z,23.27
2023-04-09T00:06:17.743Z,22.00
2023-04-09T00:08:45.330Z,21.77
2023-04-09T00:11:12.917Z,22.90
2023-04-09T00:13:40.580Z,22.87
2023-04-09T00:16:08.499Z,24.03
2023-04-09T00:18:36.320Z,23.13
2023-04-09T00:21:03.841Z,23.73
2023-04-09T00:23:31.433Z,22.33
2023-04-09T00:25:58.957Z,21.63
2023-04-09T00:28:26.499Z,22.10
2023-04-09T00:30:54.043Z,22.17
2023-04-09T00:33:21.624Z,23.70
2023-04-09T00:35:49.185Z,23.67
2023-04-09T00:38:16.779Z,24.73
2023-04-09T00:40:44.408Z,24.53
2023-04-09T00:43:12.026Z,23.07
2023-04-09T00:45:39.650Z,25.10
2023-04-09T00:48:07.580Z,23.13
2023-04-09T00:50:35.188Z,24.50
2023-04-09T00:53:02.866Z,24.80
2023-04-09T00:55:30.799Z,23.60
2023-04-09T00:57:58.430Z,25.17
2023-04-09T01:00:26.133Z,23.70
2023-04-09T01:02:53.809Z,23.23
2023-04-09T01:05:21.429Z,24.90
2023-04-09T01:08:07.755Z,25.63
2023-04-09T01:10:55.568Z,25.20
2023-04-09T01:13:30.975Z,26.67
2023-04-09T01:16:01.061Z,26.33
2023-04-09T01:18:36.266Z,24.93
2023-04-09T01:21:06.740Z,25.80
2023-04-09T01:23:53.097Z,27.43
2023-04-09T01:26:39.603Z,25.77
2023-04-09T01:29:07.886Z,27.67
2023-04-09T01:31:37.040Z,26.63
2023-04-09T01:34:05.763Z,26.87
2023-04-09T01:36:34.101Z,26.97
2023-04-09T01:39:02.563Z,26.87
2023-04-09T01:41:31.751Z,28.27
2023-04-09T01:44:00.984Z,27.13
2023-04-09T01:46:28.700Z,27.30
2023-04-09T01:48:56.810Z,26.13
2023-04-09T01:51:24.439Z,29.40
2023-04-09T01:53:51.988Z,27.47
2023-04-09T01:56:19.520Z,28.33
2023-04-09T01:58:47.109Z,26.70
2023-04-09T02:01:23.616Z,26.80
2023-04-09T02:03:59.141Z,26.73
2023-04-09T02:06:26.726Z,27.20
2023-04-09T02:08:54.440Z,26.93
2023-04-09T02:11:24.254Z,27.07
2023-04-09T02:13:54.591Z,28.37
2023-04-09T02:16:22.380Z,29.70
2023-04-09T02:18:54.059Z,28.27
2023-04-09T02:21:22.832Z,27.90
2023-04-09T02:23:50.922Z,26.90
2023-04-09T02:26:18.442Z,28.10
2023-04-09T02:28:46.036Z,28.77
2023-04-09T02:31:13.838Z,28.03
2023-04-09T02:33:41.414Z,28.13
2023-04-09T02:36:12.065Z,28.00
2023-04-09T02:38:46.065Z,27.23
2023-04-09T02:41:13.739Z,27.73
2023-04-09T02:43:41.331Z,26.50
2023-04-09T02:46:08.915Z,28.53
2023-04-09T02:48:39.305Z,27.20
2023-04-09T02:51:06.887Z,27.53
2023-04-09T02:53:34.380Z,27.70
2023-04-09T02:56:01.964Z,27.10
2023-04-09T02:58:29.479Z,27.97
2023-04-09T03:00:57.033Z,27.33
2023-04-09T03:03:24.694Z,27.93
2023-04-09T03:05:52.364Z,28.80
2023-04-09T03:08:19.888Z,28.37
2023-04-09T03:10:47.490Z,29.67
2023-04-09T03:13:15.269Z,26.67
2023-04-09T03:15:42.877Z,29.30
2023-04-09T03:18:10.394Z,30.17
2023-04-09T03:20:38.640Z,27.33
2023-04-09T03:23:06.337Z,27.13
2023-04-09T03:25:33.918Z,27.03
2023-04-09T03:28:01.467Z,28.20
2023-04-09T03:30:29.037Z,29.00
2023-04-09T03:32:56.604Z,29.13
2023-04-09T03:35:24.292Z,29.73
2023-04-09T03:37:51.782Z,29.57
2023-04-09T03:40:19.340Z,30.17
2023-04-09T03:42:46.866Z,29.03
2023-04-09T03:45:14.433Z,28.63
2023-04-09T03:47:41.953Z,28.67
2023-04-09T03:50:09.755Z,29.97
2023-04-09T03:52:37.253Z,28.67
2023-04-09T03:55:04.847Z,29.67
2023-04-09T03:57:32.404Z,30.60
2023-04-09T03:59:59.988Z,28.20
2023-04-09T04:02:27.662Z,29.27
2023-04-09T04:04:55.348Z,29.30
2023-04-09T04:07:22.834Z,29.67
2023-04-09T04:09:50.410Z,30.93
2023-04-09T04:12:17.929Z,29.50
2023-04-09T04:14:45.561Z,31.00
2023-04-09T04:17:13.070Z,30.57
2023-04-09T04:19:40.702Z,30.30
2023-04-09T04:22:08.207Z,29.40
2023-04-09T04:24:35.752Z,29.90
2023-04-09T04:27:03.240Z,28.93
2023-04-09T04:29:30.838Z,28.83
2023-04-09T04:31:58.551Z,30.57
2023-04-09T04:34:26.193Z,30.27
2023-04-09T04:36:53.742Z,30.70
2023-04-09T04:39:21.257Z,30.30
2023-04-09T04:41:48.778Z,33.43
2023-04-09T04:44:16.298Z,31.77
2023-04-09T04:46:43.811Z,33.23
2023-04-09T04:49:11.322Z,32.97
2023-04-09T04:51:38.849Z,30.73
2023-04-09T04:54:06.451Z,32.27
2023-04-09T04:56:33.977Z,31.07
2023-04-09T04:59:01.551Z,32.90
2023-04-09T05:01:29.644Z,32.50
2023-04-09T05:03:57.287Z,31.80
2023-04-09T05:06:24.842Z,31.70
2023-04-09T05:08:52.637Z,32.20
2023-04-09T05:11:21.428Z,30.80
2023-04-09T05:13:49.033Z,30.47
2023-04-09T05:16:22.436Z,30.03
2023-04-09T05:18:50.457Z,28.80
2023-04-09T05:21:18.176Z,32.50
2023-04-09T05:23:45.705Z,29.77
2023-04-09T05:26:13.360Z,28.80
2023-04-09T05:28:40.860Z,31.00
2023-04-09T05:31:08.438Z,26.57
2023-04-09T05:33:36.028Z,26.10
2023-04-09T05:36:04.970Z,26.10
2023-04-09T05:38:32.518Z,25.10
2023-04-09T05:41:00.012Z,24.03
2023-04-09T05:43:27.592Z,23.50
2023-04-09T05:45:55.116Z,24.27
2023-04-09T05:48:22.643Z,23.07
2023-04-09T05:50:55.381Z,22.70
2023-04-09T05:53:23.617Z,20.57
2023-04-09T05:55:51.120Z,21.87
2023-04-09T05:58:18.841Z,20.87
2023-04-09T06:00:46.459Z,20.00
2023-04-09T06:03:14.312Z,21.57
2023-04-09T06:05:41.905Z,19.73
2023-04-09T06:08:09.496Z,20.43
2023-04-09T06:10:37.006Z,21.43
2023-04-09T06:13:04.545Z,20.67
2023-04-09T06:15:32.108Z,21.53
2023-04-09T06:17:59.728Z,22.07
2023-04-09T06:20:27.313Z,21.20
2023-04-09T06:22:54.959Z,22.30
2023-04-09T06:25:22.743Z,21.80
2023-04-09T06:27:50.277Z,20.77
2023-04-09T06:30:17.830Z,20.83
2023-04-09T06:32:53.833Z,21.77
2023-04-09T06:35:22.917Z,21.33
2023-04-09T06:37:50.473Z,21.37
2023-04-09T06:40:19.648Z,19.37
2023-04-09T06:42:48.264Z,20.43
2023-04-09T06:45:15.776Z,21.00
2023-04-09T06:47:43.354Z,21.43
2023-04-09T06:50:10.967Z,21.10
2023-04-09T06:52:38.507Z,20.07
2023-04-09T06:55:06.287Z,20.87
2023-04-09T06:57:33.807Z,19.40
2023-04-09T07:00:01.344Z,18.67
2023-04-09T07:02:29.162Z,18.40
2023-04-09T07:04:56.927Z,19.13
2023-04-09T07:07:25.839Z,18.90
2023-04-09T07:09:53.782Z,18.30
2023-04-09T07:12:31.324Z,18.37
2023-04-09T07:15:02.764Z,16.80
2023-04-09T07:17:31.688Z,18.30
2023-04-09T07:19:59.204Z,17.80
2023-04-09T07:22:27.493Z,15.57
2023-04-09T07:24:55.031Z,15.70
2023-04-09T07:27:26.752Z,16.40
2023-04-09T07:29:58.454Z,15.43
2023-04-09T07:32:26.541Z,15.60
2023-04-09T07:34:54.690Z,13.50
2023-04-09T07:37:22.440Z,13.40
2023-04-09T07:39:50.389Z,11.20
2023-04-09T07:42:18.021Z,11.17
2023-04-09T07:44:45.552Z,11.30
2023-04-09T07:47:13.146Z,11.27
2023-04-09T07:49:41.076Z,10.60
2023-04-09T07:52:08.688Z,11.07
2023-04-09T07:54:36.280Z,10.70
2023-04-09T07:57:04.201Z,10.23
2023-04-09T07:59:31.874Z,10.50
2023-04-09T08:02:00.029Z,10.60
2023-04-09T08:04:27.981Z,9.70
2023-04-09T08:06:55.795Z,9.70
2023-04-09T08:09:23.594Z,10.60
2023-04-09T08:11:51.215Z,10.33
2023-04-09T08:14:21.833Z,9.30
2023-04-09T08:16:51.118Z,10.77
2023-04-09T08:19:19.553Z,10.23
2023-04-09T08:21:48.234Z,10.27
2023-04-09T08:24:15.791Z,11.00
2023-04-09T08:26:43.348Z,10.47
2023-04-09T08:29:11.611Z,9.90
2023-04-09T08:34:52.753Z,10.73
2023-04-09T08:37:20.267Z,8.63
2023-04-09T08:39:47.843Z,9.70
2023-04-09T08:42:15.672Z,9.47
2023-04-09T08:44:44.246Z,10.43
2023-04-09T08:47:12.162Z,10.60
2023-04-09T08:49:40.475Z,10.20
2023-04-09T08:52:08.286Z,10.03
2023-04-09T08:54:36.149Z,10.20
2023-04-09T08:57:07.111Z,9.57
2023-04-09T08:59:34.758Z,9.57
2023-04-09T09:02:09.328Z,10.40
2023-04-09T09:04:50.234Z,9.67
2023-04-09T09:07:19.228Z,10.10
2023-04-09T09:09:53.357Z,9.97
2023-04-09T09:12:34.675Z,9.67
2023-04-09T09:15:02.743Z,9.43
2023-04-09T09:17:30.343Z,10.30
2023-04-09T09:19:58.542Z,10.50
2023-04-09T09:22:26.179Z,9.37
2023-04-09T09:24:53.889Z,9.30
2023-04-09T09:27:33.500Z,9.50
2023-04-09T09:30:02.308Z,8.97
2023-04-09T09:32:30.035Z,7.80
2023-04-09T09:35:02.680Z,8.17
2023-04-09T09:37:30.681Z,8.07
2023-04-09T09:39:58.885Z,7.13
2023-04-09T09:42:26.644Z,6.07
2023-04-09T09:44:55.206Z,5.40
2023-04-09T09:47:23.619Z,6.63
2023-04-09T09:49:51.851Z,5.83
2023-04-09T09:52:22.053Z,6.50
2023-04-09T09:54:52.314Z,6.10
2023-04-09T09:57:20.512Z,6.40
2023-04-09T09:59:51.520Z,5.87
2023-04-09T10:02:19.943Z,6.03
2023-04-09T10:04:49.585Z,5.70
2023-04-09T10:07:17.667Z,5.67
2023-04-09T10:09:49.474Z,5.90
2023-04-09T10:12:17.328Z,5.60
2023-04-09T10:14:45.620Z,6.07
2023-04-09T10:17:13.303Z,5.60
2023-04-09T10:19:47.997Z,6.10
2023-04-09T10:22:18.801Z,5.37
2023-04-09T10:24:46.593Z,5.80
2023-04-09T10:27:16.664Z,5.33
2023-04-09T10:29:45.960Z,5.90
2023-04-09T10:32:14.271Z,5.70
2023-04-09T10:34:42.616Z,5.23
2023-04-09T10:37:11.267Z,4.63
2023-04-09T10:39:45.489Z,5.27
2023-04-09T10:42:21.436Z,4.83
2023-04-09T10:45:05.096Z,5.13
2023-04-09T10:47:33.883Z,4.97
2023-04-09T10:50:21.470Z,5.43
2023-04-09T10:52:53.194Z,5.20
2023-04-09T10:55:36.072Z,5.60
2023-04-09T10:58:04.518Z,6.10
2023-04-09T11:00:32.132Z,6.10
2023-04-09T11:03:07.131Z,7.25
2023-04-09T11:05:35.679Z,5.87
2023-04-09T11:08:13.419Z,6.27
2023-04-09T11:10:45.254Z,6.00
2023-04-09T11:13:13.362Z,5.67
2023-04-09T11:15:41.123Z,6.20
2023-04-09T11:18:08.857Z,6.03
2023-04-09T11:20:36.825Z,5.87
2023-04-09T11:23:04.469Z,5.50
2023-04-09T11:25:32.685Z,5.27
2023-04-09T11:28:00.623Z,5.90
2023-04-09T11:30:28.274Z,5.53
2023-04-09T11:32:56.340Z,4.90
2023-04-09T11:35:24.086Z,5.37
2023-04-09T11:37:51.656Z,5.00
2023-04-09T11:40:26.595Z,5.17
2023-04-09T11:42:54.853Z,4.40
2023-04-09T11:45:26.423Z,5.27
2023-04-09T11:47:54.619Z,5.40
2023-04-09T11:50:22.525Z,5.13
2023-04-09T11:52:50.663Z,5.53
2023-04-09T11:55:25.144Z,6.13
2023-04-09T11:57:53.996Z,5.37
2023-04-09T12:00:21.838Z,5.67
2023-04-09T12:02:50.231Z,6.37
2023-04-09T12:05:25.550Z,5.53
2023-04-09T12:07:56.671Z,6.23
2023-04-09T12:10:27.846Z,5.33
2023-04-09T12:12:55.498Z,5.83
2023-04-09T12:15:24.467Z,6.50
2023-04-09T12:17:58.928Z,5.37
2023-04-09T12:20:30.530Z,5.60
2023-04-09T12:22:58.921Z,5.67
2023-04-09T12:25:26.729Z,6.33
2023-04-09T12:27:54.591Z,6.53
2023-04-09T12:30:22.217Z,6.90
2023-04-09T12:32:49.838Z,5.77
2023-04-09T12:35:17.436Z,6.30
2023-04-09T12:37:45.114Z,6.10
2023-04-09T12:40:12.761Z,6.07
2023-04-09T12:42:41.197Z,6.30
2023-04-09T12:45:10.963Z,6.13
2023-04-09T12:47:38.898Z,6.67
2023-04-09T12:50:07.189Z,6.60
2023-04-09T12:52:34.817Z,6.00
2023-04-09T12:55:02.952Z,4.77
2023-04-09T12:57:30.652Z,6.17
2023-04-09T12:59:58.649Z,5.97
2023-04-09T13:02:26.413Z,6.27
2023-04-09T13:04:54.105Z,6.87
2023-04-09T13:07:21.755Z,5.83
2023-04-09T13:09:49.624Z,5.97
2023-04-09T13:12:17.622Z,5.70
2023-04-09T13:14:47.270Z,6.87
2023-04-09T13:17:15.706Z,6.37
2023-04-09T13:19:43.331Z,6.47
2023-04-09T13:22:11.005Z,6.50
2023-04-09T13:24:38.948Z,6.33
2023-04-09T13:27:07.043Z,6.30
2023-04-09T13:29:34.646Z,6.10
2023-04-09T13:32:02.276Z,5.70
2023-04-09T13:34:29.816Z,6.83
2023-04-09T13:36:57.378Z,6.50
2023-04-09T13:39:24.964Z,6.27
2023-04-09T13:41:52.602Z,6.70
2023-04-09T13:44:20.194Z,6.40
2023-04-09T13:46:48.094Z,5.93
2023-04-09T13:49:15.650Z,6.47
2023-04-09T13:51:43.248Z,6.40
2023-04-09T13:54:10.821Z,6.33
2023-04-09T13:56:38.941Z,6.13
2023-04-09T13:59:06.533Z,6.13
2023-04-09T14:01:34.849Z,6.40
2023-04-09T14:04:02.785Z,6.60
2023-04-09T14:06:30.490Z,6.30
2023-04-09T14:08:58.086Z,7.37
2023-04-09T14:11:25.752Z,7.07
2023-04-09T14:13:54.530Z,6.47
2023-04-09T14:16:22.467Z,6.07
2023-04-09T14:18:50.103Z,6.53
2023-04-09T14:21:17.835Z,6.63
2023-04-09T14:23:45.708Z,6.10
2023-04-09T14:26:14.146Z,5.87
2023-04-09T14:28:41.673Z,5.47
2023-04-09T14:31:09.508Z,4.53
2023-04-09T14:33:37.122Z,5.27
2023-04-09T14:36:04.872Z,6.07
2023-04-09T14:38:32.828Z,5.97
2023-04-09T14:41:00.491Z,6.30
2023-04-09T14:43:28.072Z,6.20
2023-04-09T14:45:55.821Z,6.03
2023-04-09T14:48:23.531Z,5.40
2023-04-09T14:50:51.216Z,6.27
2023-04-09T14:53:18.936Z,5.50
2023-04-09T14:55:46.609Z,5.53
2023-04-09T14:58:14.194Z,5.57
2023-04-09T15:00:41.808Z,5.37
2023-04-09T15:03:09.586Z,5.20
2023-04-09T15:05:37.401Z,5.30
2023-04-09T15:08:05.118Z,4.77
2023-04-09T15:10:33.558Z,4.83
2023-04-09T15:13:01.275Z,5.00
2023-04-09T15:15:29.136Z,4.70
2023-04-09T15:17:56.903Z,5.67
2023-04-09T15:20:24.566Z,4.57
2023-04-09T15:22:52.814Z,5.10
2023-04-09T15:25:21.995Z,4.93
2023-04-09T15:27:49.735Z,5.10
2023-04-09T15:30:17.421Z,5.87
2023-04-09T15:32:44.972Z,5.47
2023-04-09T15:35:12.776Z,5.47
2023-04-09T15:37:40.563Z,5.27
2023-04-09T15:40:08.543Z,5.23
2023-04-09T15:42:36.279Z,5.10
2023-04-09T15:45:04.002Z,5.80
2023-04-09T15:47:33.176Z,5.80
2023-04-09T15:50:01.412Z,5.20
2023-04-09T15:52:28.992Z,4.63
2023-04-09T15:54:56.746Z,4.17
2023-04-09T15:57:24.411Z,5.60
2023-04-09T15:59:53.078Z,4.13
2023-04-09T16:02:20.779Z,5.00
2023-04-09T16:04:48.578Z,4.60
2023-04-09T16:07:16.235Z,5.10
2023-04-09T16:09:43.950Z,4.87
2023-04-09T16:12:11.551Z,4.53
2023-04-09T16:14:39.228Z,4.17
2023-04-09T16:17:06.950Z,4.40
2023-04-09T16:19:34.625Z,4.37
2023-04-09T16:22:02.973Z,4.00
2023-04-09T16:24:30.913Z,5.30
2023-04-09T16:26:58.653Z,4.23
2023-04-09T16:29:26.309Z,4.07
2023-04-09T16:31:54.045Z,4.33
2023-04-09T16:34:21.933Z,4.07
2023-04-09T16:36:50.345Z,4.90
2023-04-09T16:39:19.415Z,5.03
2023-04-09T16:41:47.110Z,4.87
2023-04-09T16:44:14.833Z,5.07
2023-04-09T16:46:42.433Z,4.43
2023-04-09T16:49:10.522Z,4.80
2023-04-09T16:51:38.074Z,4.40
2023-04-09T16:54:09.331Z,4.67
2023-04-09T16:56:42.468Z,4.43
2023-04-09T16:59:10.216Z,5.27
2023-04-09T17:01:37.976Z,4.70
2023-04-09T17:04:05.718Z,4.77
2023-04-09T17:06:33.395Z,4.17
2023-04-09T17:09:00.978Z,4.33
2023-04-09T17:11:28.566Z,4.63
2023-04-09T17:13:56.424Z,4.40
2023-04-09T17:16:24.245Z,4.57
2023-04-09T17:18:52.718Z,4.30
2023-04-09T17:21:20.884Z,5.10
2023-04-09T17:23:48.658Z,4.50
2023-04-09T17:26:16.270Z,4.33
2023-04-09T17:28:44.879Z,4.57
2023-04-09T17:31:13.557Z,4.93
2023-04-09T17:33:41.255Z,4.50
2023-04-09T17:36:11.012Z,4.60
2023-04-09T17:38:38.829Z,4.70
2023-04-09T17:41:07.695Z,4.43
2023-04-09T17:43:35.585Z,4.67
2023-04-09T17:46:03.493Z,4.70
2023-04-09T17:48:32.083Z,4.50
2023-04-09T17:50:59.831Z,5.10
2023-04-09T17:53:27.601Z,3.97
2023-04-09T17:55:55.255Z,3.97
2023-04-09T17:58:22.910Z,4.03
2023-04-09T18:00:50.529Z,3.80
2023-04-09T18:03:18.323Z,4.07
2023-04-09T18:05:46.207Z,4.07
2023-04-09T18:08:14.090Z,3.70
2023-04-09T18:10:41.770Z,4.03
2023-04-09T18:13:10.042Z,3.80
2023-04-09T18:15:37.970Z,3.67
2023-04-09T18:18:05.667Z,3.33
2023-04-09T18:20:33.239Z,3.20
2023-04-09T18:23:00.878Z,3.50
2023-04-09T18:25:28.454Z,3.60
2023-04-09T18:27:56.229Z,3.90
2023-04-09T18:30:23.813Z,3.87
2023-04-09T18:32:51.699Z,3.87
2023-04-09T18:35:19.578Z,3.97
2023-04-09T18:37:47.228Z,5.20
2023-04-09T18:40:14.987Z,3.60
2023-04-09T18:42:42.898Z,3.43
2023-04-09T18:45:12.307Z,4.40
2023-04-09T18:47:40.171Z,4.20
2023-04-09T18:50:08.161Z,3.73
2023-04-09T18:52:35.774Z,4.63
2023-04-09T18:55:05.804Z,4.10
2023-04-09T18:57:33.462Z,3.60
2023-04-09T19:00:01.454Z,3.73
2023-04-09T19:02:29.473Z,4.00
2023-04-09T19:04:57.256Z,3.80
2023-04-09T19:07:24.951Z,3.83
2023-04-09T19:09:52.807Z,3.63
2023-04-09T19:12:20.578Z,3.60
2023-04-09T19:14:48.414Z,3.60
2023-04-09T19:17:16.117Z,3.70
2023-04-09T19:19:43.977Z,3.57
2023-04-09T19:22:11.602Z,3.30
2023-04-09T19:24:39.354Z,4.20
2023-04-09T19:27:07.080Z,4.73
2023-04-09T19:29:34.882Z,5.30
2023-04-09T19:32:03.672Z,6.13
2023-04-09T19:34:33.666Z,5.47
2023-04-09T19:37:02.943Z,4.77
2023-04-09T19:39:31.428Z,5.50
2023-04-09T19:41:59.244Z,4.57
2023-04-09T19:44:26.807Z,5.00
2023-04-09T19:46:54.750Z,4.73
2023-04-09T19:49:23.295Z,5.17
2023-04-09T19:51:51.163Z,4.87
2023-04-09T19:54:22.154Z,4.60
2023-04-09T19:56:50.816Z,4.90
2023-04-09T19:59:20.732Z,5.33
2023-04-09T20:01:49.397Z,5.57
2023-04-09T20:04:22.345Z,4.33
2023-04-09T20:09:44.163Z,4.53
2023-04-09T20:12:12.343Z,5.10
2023-04-09T20:14:40.022Z,4.83
2023-04-09T20:17:07.799Z,5.03
2023-04-09T20:19:36.435Z,4.77
2023-04-09T20:22:04.702Z,5.13
2023-04-09T20:24:36.901Z,4.90
2023-04-09T20:27:05.273Z,4.90
2023-04-09T20:29:33.859Z,4.47
2023-04-09T20:32:01.806Z,4.80
2023-04-09T20:34:29.982Z,4.80
2023-04-09T20:37:02.285Z,4.63
2023-04-09T20:39:32.886Z,4.60
2023-04-09T20:42:00.912Z,5.07
2023-04-09T20:44:29.077Z,4.97
2023-04-09T20:46:56.710Z,4.53
2023-04-09T20:49:24.264Z,4.47
2023-04-09T20:51:51.904Z,4.80
2023-04-09T20:54:19.420Z,4.83
2023-04-09T20:56:46.982Z,5.80
2023-04-09T20:59:16.280Z,5.53
2023-04-09T21:01:44.025Z,5.17
2023-04-09T21:04:11.833Z,5.10
2023-04-09T21:06:39.532Z,5.57
2023-04-09T21:09:07.038Z,5.87
2023-04-09T21:11:34.706Z,4.83
2023-04-09T21:14:02.209Z,5.90
2023-04-09T21:16:29.848Z,5.77
2023-04-09T21:18:57.490Z,5.73
2023-04-09T21:21:25.362Z,5.30
2023-04-09T21:23:52.872Z,6.07
2023-04-09T21:26:20.456Z,6.47
2023-04-09T21:28:47.934Z,7.67
2023-04-09T21:31:15.537Z,6.57
2023-04-09T21:33:43.061Z,6.10
2023-04-09T21:36:10.658Z,6.13
2023-04-09T21:38:38.199Z,6.97
2023-04-09T21:41:05.927Z,6.10
2023-04-09T21:43:33.473Z,7.03
2023-04-09T21:46:01.152Z,6.60
2023-04-09T21:48:28.655Z,6.97
2023-04-09T21:50:56.167Z,6.93
2023-04-09T21:53:23.711Z,5.73
2023-04-09T21:55:51.320Z,6.40
2023-04-09T21:58:18.871Z,6.67
2023-04-09T22:00:46.425Z,6.83
2023-04-09T22:03:14.167Z,6.43
2023-04-09T22:05:42.088Z,7.17
2023-04-09T22:08:09.578Z,6.70
2023-04-09T22:10:37.190Z,7.27
2023-04-09T22:13:04.738Z,7.40
2023-04-09T22:15:32.467Z,7.53
2023-04-09T22:18:00.062Z,7.33
2023-04-09T22:20:27.708Z,6.97
2023-04-09T22:22:55.403Z,7.20
2023-04-09T22:25:23.108Z,7.87
2023-04-09T22:27:51.522Z,7.90
2023-04-09T22:30:19.446Z,7.90
2023-04-09T22:32:47.127Z,8.53
2023-04-09T22:35:14.706Z,7.73
2023-04-09T22:37:42.210Z,8.03
2023-04-09T22:40:10.084Z,7.30
2023-04-09T22:42:37.623Z,7.70
2023-04-09T22:45:05.318Z,7.17
2023-04-09T22:47:32.865Z,9.00
2023-04-09T22:50:00.533Z,8.00
2023-04-09T22:52:28.098Z,8.40
2023-04-09T22:54:55.682Z,7.73
2023-04-09T22:57:23.242Z,7.60
2023-04-09T22:59:50.867Z,8.70
2023-04-09T23:02:18.482Z,7.47
2023-04-09T23:04:46.118Z,8.13
2023-04-09T23:07:13.687Z,7.63
2023-04-09T23:09:41.318Z,8.30
2023-04-09T23:12:08.845Z,7.77
2023-04-09T23:14:36.395Z,7.20
2023-04-09T23:17:03.944Z,7.70
2023-04-09T23:19:31.536Z,8.23
2023-04-09T23:21:59.023Z,7.20
2023-04-09T23:24:26.706Z,8.27
2023-04-09T23:26:54.223Z,9.00
2023-04-09T23:29:21.807Z,8.27
2023-04-09T23:31:49.319Z,7.37
2023-04-09T23:34:16.889Z,7.80
2023-04-09T23:36:44.374Z,8.07
2023-04-09T23:39:11.963Z,8.20
2023-04-09T23:41:39.465Z,8.23
2023-04-09T23:44:07.034Z,7.83
2023-04-09T23:46:34.527Z,8.13
2023-04-09T23:49:02.143Z,8.00
2023-04-09T23:51:29.744Z,8.47
2023-04-09T23:53:57.313Z,8.83
2023-04-09T23:56:24.845Z,7.80
2023-04-09T23:58:52.428Z,8.50
